sensor_id;sensor_type;location;lat;lon;timestamp;temperature;humidity
9824;DHT22;4951;50.778;7.196;2022-09-14T00:02:07;18.20;99.90
9824;DHT22;4951;50.778;7.196;2022-09-14T00:04:36;18.20;99.90
9824;DHT22;4951;50.778;7.196;2022-09-14T00:07:03;18.20;99.90
9824;DHT22;4951;50.778;7.196;2022-09-14T00:09:30;18.30;99.90
9824;DHT22;4951;50.778;7.196;2022-09-14T00:11:57;18.20;99.90
9824;DHT22;4951;50.778;7.196;2022-09-14T00:14:25;18.20;99.90
9824;DHT22;4951;50.778;7.196;2022-09-14T00:16:52;18.20;99.90
9824;DHT22;4951;50.778;7.196;2022-09-14T00:19:21;18.20;99.90
9824;DHT22;4951;50.778;7.196;2022-09-14T00:21:51;18.20;99.90
9824;DHT22;4951;50.778;7.196;2022-09-14T00:24:19;18.20;99.90
9824;DHT22;4951;50.778;7.196;2022-09-14T00:26:47;18.20;99.90
9824;DHT22;4951;50.778;7.196;2022-09-14T00:29:14;18.20;99.90
9824;DHT22;4951;50.778;7.196;2022-09-14T00:31:41;18.20;99.90
9824;DHT22;4951;50.778;7.196;2022-09-14T00:34:11;18.20;99.90
9824;DHT22;4951;50.778;7.196;2022-09-14T00:36:40;18.20;99.90
9824;DHT22;4951;50.778;7.196;2022-09-14T00:39:10;18.20;99.90
9824;DHT22;4951;50.778;7.196;2022-09-14T00:41:39;18.20;99.90
9824;DHT22;4951;50.778;7.196;2022-09-14T00:46:52;18.20;99.90
9824;DHT22;4951;50.778;7.196;2022-09-14T00:49:21;18.20;99.90
9824;DHT22;4951;50.778;7.196;2022-09-14T00:51:51;18.20;99.90
9824;DHT22;4951;50.778;7.196;2022-09-14T00:54:20;18.20;99.90
9824;DHT22;4951;50.778;7.196;2022-09-14T00:56:48;18.20;99.90
9824;DHT22;4951;50.778;7.196;2022-09-14T00:59:19;18.20;99.90
9824;DHT22;4951;50.778;7.196;2022-09-14T01:01:48;18.20;99.90
9824;DHT22;4951;50.778;7.196;2022-09-14T01:04:16;18.20;99.90
9824;DHT22;4951;50.778;7.196;2022-09-14T01:06:48;18.20;99.90
9824;DHT22;4951;50.778;7.196;2022-09-14T01:09:25;18.20;99.90
9824;DHT22;4951;50.778;7.196;2022-09-14T01:12:11;18.20;99.90
9824;DHT22;4951;50.778;7.196;2022-09-14T01:14:51;18.20;99.90
9824;DHT22;4951;50.778;7.196;2022-09-14T01:17:33;18.20;99.90
9824;DHT22;4951;50.778;7.196;2022-09-14T01:20:17;18.20;99.90
9824;DHT22;4951;50.778;7.196;2022-09-14T01:22:50;18.20;99.90
9824;DHT22;4951;50.778;7.196;2022-09-14T01:25:56;18.20;99.90
9824;DHT22;4951;50.778;7.196;2022-09-14T01:28:30;18.20;99.90
9824;DHT22;4951;50.778;7.196;2022-09-14T01:31:00;18.20;99.90
9824;DHT22;4951;50.778;7.196;2022-09-14T01:33:32;18.20;99.90
9824;DHT22;4951;50.778;7.196;2022-09-14T01:36:03;18.20;99.90
9824;DHT22;4951;50.778;7.196;2022-09-14T01:38:36;18.20;99.90
9824;DHT22;4951;50.778;7.196;2022-09-14T01:41:08;18.20;99.90
9824;DHT22;4951;50.778;7.196;2022-09-14T01:43:42;18.20;99.90
9824;DHT22;4951;50.778;7.196;2022-09-14T01:46:13;18.20;99.90
9824;DHT22;4951;50.778;7.196;2022-09-14T01:48:46;18.20;99.90
9824;DHT22;4951;50.778;7.196;2022-09-14T01:51:18;18.20;99.90
9824;DHT22;4951;50.778;7.196;2022-09-14T01:53:49;18.20;99.90
9824;DHT22;4951;50.778;7.196;2022-09-14T01:56:22;18.20;99.90
9824;DHT22;4951;50.778;7.196;2022-09-14T01:58:53;18.20;99.90
9824;DHT22;4951;50.778;7.196;2022-09-14T02:01:27;18.20;99.90
9824;DHT22;4951;50.778;7.196;2022-09-14T02:04:01;18.20;99.90
9824;DHT22;4951;50.778;7.196;2022-09-14T02:06:34;18.20;99.90
9824;DHT22;4951;50.778;7.196;2022-09-14T02:09:02;18.20;99.90
9824;DHT22;4951;50.778;7.196;2022-09-14T02:11:29;18.20;99.90
9824;DHT22;4951;50.778;7.196;2022-09-14T02:14:00;18.20;99.90
9824;DHT22;4951;50.778;7.196;2022-09-14T02:16:28;18.20;99.90
9824;DHT22;4951;50.778;7.196;2022-09-14T02:18:55;18.10;99.90
9824;DHT22;4951;50.778;7.196;2022-09-14T02:21:26;18.20;99.90
9824;DHT22;4951;50.778;7.196;2022-09-14T02:23:53;18.10;99.90
9824;DHT22;4951;50.778;7.196;2022-09-14T02:26:21;18.20;99.90
9824;DHT22;4951;50.778;7.196;2022-09-14T02:28:49;18.10;99.90
9824;DHT22;4951;50.778;7.196;2022-09-14T02:31:26;18.20;99.90
9824;DHT22;4951;50.778;7.196;2022-09-14T02:34:04;18.10;99.90
9824;DHT22;4951;50.778;7.196;2022-09-14T02:36:45;18.10;99.90
9824;DHT22;4951;50.778;7.196;2022-09-14T02:39:32;18.10;99.90
9824;DHT22;4951;50.778;7.196;2022-09-14T02:42:11;18.10;99.90
9824;DHT22;4951;50.778;7.196;2022-09-14T02:44:44;18.20;99.90
9824;DHT22;4951;50.778;7.196;2022-09-14T02:47:20;18.10;99.90
9824;DHT22;4951;50.778;7.196;2022-09-14T02:49:53;18.10;99.90
9824;DHT22;4951;50.778;7.196;2022-09-14T02:52:29;18.10;99.90
9824;DHT22;4951;50.778;7.196;2022-09-14T02:55:03;18.10;99.90
9824;DHT22;4951;50.778;7.196;2022-09-14T02:57:58;18.10;99.90
9824;DHT22;4951;50.778;7.196;2022-09-14T03:00:25;18.10;99.90
9824;DHT22;4951;50.778;7.196;2022-09-14T03:02:54;18.10;99.90
9824;DHT22;4951;50.778;7.196;2022-09-14T03:05:21;18.10;99.90
9824;DHT22;4951;50.778;7.196;2022-09-14T03:07:48;18.10;99.90
9824;DHT22;4951;50.778;7.196;2022-09-14T03:10:15;18.10;99.90
9824;DHT22;4951;50.778;7.196;2022-09-14T03:12:43;18.10;99.90
9824;DHT22;4951;50.778;7.196;2022-09-14T03:15:10;18.10;99.90
9824;DHT22;4951;50.778;7.196;2022-09-14T03:17:37;18.10;99.90
9824;DHT22;4951;50.778;7.196;2022-09-14T03:20:07;18.00;99.90
9824;DHT22;4951;50.778;7.196;2022-09-14T03:22:35;18.00;99.90
9824;DHT22;4951;50.778;7.196;2022-09-14T03:25:02;18.00;99.90
9824;DHT22;4951;50.778;7.196;2022-09-14T03:27:30;18.00;99.90
9824;DHT22;4951;50.778;7.196;2022-09-14T03:29:57;18.10;99.90
9824;DHT22;4951;50.778;7.196;2022-09-14T03:32:24;18.00;99.90
9824;DHT22;4951;50.778;7.196;2022-09-14T03:34:52;18.00;99.90
9824;DHT22;4951;50.778;7.196;2022-09-14T03:37:20;18.00;99.90
9824;DHT22;4951;50.778;7.196;2022-09-14T03:39:47;18.00;99.90
9824;DHT22;4951;50.778;7.196;2022-09-14T03:42:15;18.00;99.90
9824;DHT22;4951;50.778;7.196;2022-09-14T03:44:42;18.00;99.90
9824;DHT22;4951;50.778;7.196;2022-09-14T03:47:09;18.00;99.90
9824;DHT22;4951;50.778;7.196;2022-09-14T03:49:36;18.10;99.90
9824;DHT22;4951;50.778;7.196;2022-09-14T03:52:03;18.00;99.90
9824;DHT22;4951;50.778;7.196;2022-09-14T03:54:31;18.10;99.90
9824;DHT22;4951;50.778;7.196;2022-09-14T03:56:59;18.10;99.90
9824;DHT22;4951;50.778;7.196;2022-09-14T03:59:26;18.10;99.90
9824;DHT22;4951;50.778;7.196;2022-09-14T04:01:53;18.10;99.90
9824;DHT22;4951;50.778;7.196;2022-09-14T04:04:20;18.10;99.90
9824;DHT22;4951;50.778;7.196;2022-09-14T04:06:47;18.10;99.90
9824;DHT22;4951;50.778;7.196;2022-09-14T04:09:15;18.10;99.90
9824;DHT22;4951;50.778;7.196;2022-09-14T04:11:45;18.10;99.90
9824;DHT22;4951;50.778;7.196;2022-09-14T04:14:13;18.10;99.90
9824;DHT22;4951;50.778;7.196;2022-09-14T04:16:40;18.00;99.90
9824;DHT22;4951;50.778;7.196;2022-09-14T04:19:10;18.00;99.90
9824;DHT22;4951;50.778;7.196;2022-09-14T04:21:37;18.00;99.90
9824;DHT22;4951;50.778;7.196;2022-09-14T04:24:05;18.00;99.90
9824;DHT22;4951;50.778;7.196;2022-09-14T04:26:32;18.00;99.90
9824;DHT22;4951;50.778;7.196;2022-09-14T04:29:02;18.00;99.90
9824;DHT22;4951;50.778;7.196;2022-09-14T04:31:31;18.00;99.90
9824;DHT22;4951;50.778;7.196;2022-09-14T04:33:58;18.00;99.90
9824;DHT22;4951;50.778;7.196;2022-09-14T04:36:27;18.00;99.90
9824;DHT22;4951;50.778;7.196;2022-09-14T04:38:57;18.00;99.90
9824;DHT22;4951;50.778;7.196;2022-09-14T04:41:25;18.00;99.90
9824;DHT22;4951;50.778;7.196;2022-09-14T04:43:54;18.00;99.90
9824;DHT22;4951;50.778;7.196;2022-09-14T04:46:24;18.00;99.90
9824;DHT22;4951;50.778;7.196;2022-09-14T04:48:52;18.00;99.90
9824;DHT22;4951;50.778;7.196;2022-09-14T04:51:21;18.00;99.90
9824;DHT22;4951;50.778;7.196;2022-09-14T04:53:49;18.00;99.90
9824;DHT22;4951;50.778;7.196;2022-09-14T04:56:18;17.90;99.90
9824;DHT22;4951;50.778;7.196;2022-09-14T04:58:47;17.90;99.90
9824;DHT22;4951;50.778;7.196;2022-09-14T05:01:17;17.90;99.90
9824;DHT22;4951;50.778;7.196;2022-09-14T05:03:46;17.90;99.90
9824;DHT22;4951;50.778;7.196;2022-09-14T05:06:15;17.90;99.90
9824;DHT22;4951;50.778;7.196;2022-09-14T05:08:43;17.90;99.90
9824;DHT22;4951;50.778;7.196;2022-09-14T05:11:13;17.90;99.90
9824;DHT22;4951;50.778;7.196;2022-09-14T05:13:40;17.90;99.90
9824;DHT22;4951;50.778;7.196;2022-09-14T05:16:09;17.90;99.90
9824;DHT22;4951;50.778;7.196;2022-09-14T05:18:37;17.90;99.90
9824;DHT22;4951;50.778;7.196;2022-09-14T05:21:06;17.90;99.90
9824;DHT22;4951;50.778;7.196;2022-09-14T05:23:34;17.90;99.90
9824;DHT22;4951;50.778;7.196;2022-09-14T05:26:02;17.90;99.90
9824;DHT22;4951;50.778;7.196;2022-09-14T05:28:30;17.90;99.90
9824;DHT22;4951;50.778;7.196;2022-09-14T05:30:57;17.90;99.90
9824;DHT22;4951;50.778;7.196;2022-09-14T05:33:24;17.90;99.90
9824;DHT22;4951;50.778;7.196;2022-09-14T05:35:51;17.90;99.90
9824;DHT22;4951;50.778;7.196;2022-09-14T05:38:20;17.90;99.90
9824;DHT22;4951;50.778;7.196;2022-09-14T05:40:47;17.90;99.90
9824;DHT22;4951;50.778;7.196;2022-09-14T05:43:15;17.90;99.90
9824;DHT22;4951;50.778;7.196;2022-09-14T05:45:42;17.90;99.90
9824;DHT22;4951;50.778;7.196;2022-09-14T05:48:09;17.90;99.90
9824;DHT22;4951;50.778;7.196;2022-09-14T05:50:36;17.90;99.90
9824;DHT22;4951;50.778;7.196;2022-09-14T05:53:03;17.90;99.90
9824;DHT22;4951;50.778;7.196;2022-09-14T05:55:31;17.90;99.90
9824;DHT22;4951;50.778;7.196;2022-09-14T05:57:58;17.90;99.90
9824;DHT22;4951;50.778;7.196;2022-09-14T06:00:25;17.90;99.90
9824;DHT22;4951;50.778;7.196;2022-09-14T06:02:55;17.90;99.90
9824;DHT22;4951;50.778;7.196;2022-09-14T06:05:22;17.90;99.90
9824;DHT22;4951;50.778;7.196;2022-09-14T06:07:51;17.90;99.90
9824;DHT22;4951;50.778;7.196;2022-09-14T06:10:19;17.90;99.90
9824;DHT22;4951;50.778;7.196;2022-09-14T06:12:47;17.90;99.90
9824;DHT22;4951;50.778;7.196;2022-09-14T06:15:14;17.90;99.90
9824;DHT22;4951;50.778;7.196;2022-09-14T06:17:42;17.90;99.90
9824;DHT22;4951;50.778;7.196;2022-09-14T06:20:09;17.90;99.90
9824;DHT22;4951;50.778;7.196;2022-09-14T06:22:36;17.90;99.90
9824;DHT22;4951;50.778;7.196;2022-09-14T06:25:04;17.90;99.90
9824;DHT22;4951;50.778;7.196;2022-09-14T06:27:31;17.90;99.90
9824;DHT22;4951;50.778;7.196;2022-09-14T06:29:59;17.90;99.90
9824;DHT22;4951;50.778;7.196;2022-09-14T06:32:29;17.80;99.90
9824;DHT22;4951;50.778;7.196;2022-09-14T06:34:56;17.90;99.90
9824;DHT22;4951;50.778;7.196;2022-09-14T06:37:23;17.90;99.90
9824;DHT22;4951;50.778;7.196;2022-09-14T06:39:50;17.90;99.90
9824;DHT22;4951;50.778;7.196;2022-09-14T06:42:17;17.90;99.90
9824;DHT22;4951;50.778;7.196;2022-09-14T06:44:49;17.90;99.90
9824;DHT22;4951;50.778;7.196;2022-09-14T06:47:17;17.90;99.90
9824;DHT22;4951;50.778;7.196;2022-09-14T06:49:44;17.90;99.90
9824;DHT22;4951;50.778;7.196;2022-09-14T06:52:11;17.90;99.90
9824;DHT22;4951;50.778;7.196;2022-09-14T06:54:38;17.90;99.90
9824;DHT22;4951;50.778;7.196;2022-09-14T06:57:05;17.90;99.90
9824;DHT22;4951;50.778;7.196;2022-09-14T06:59:32;17.90;99.90
9824;DHT22;4951;50.778;7.196;2022-09-14T07:01:59;17.90;99.90
9824;DHT22;4951;50.778;7.196;2022-09-14T07:04:28;18.00;99.90
9824;DHT22;4951;50.778;7.196;2022-09-14T07:06:55;18.00;99.90
9824;DHT22;4951;50.778;7.196;2022-09-14T07:09:22;18.00;99.90
9824;DHT22;4951;50.778;7.196;2022-09-14T07:11:50;18.00;99.90
9824;DHT22;4951;50.778;7.196;2022-09-14T07:14:19;18.00;99.90
9824;DHT22;4951;50.778;7.196;2022-09-14T07:16:46;18.00;99.90
9824;DHT22;4951;50.778;7.196;2022-09-14T07:19:14;18.00;99.90
9824;DHT22;4951;50.778;7.196;2022-09-14T07:21:42;18.00;99.90
9824;DHT22;4951;50.778;7.196;2022-09-14T07:24:10;18.00;99.90
9824;DHT22;4951;50.778;7.196;2022-09-14T07:26:39;18.00;99.90
9824;DHT22;4951;50.778;7.196;2022-09-14T07:29:10;18.00;99.90
9824;DHT22;4951;50.778;7.196;2022-09-14T07:31:40;18.10;99.90
9824;DHT22;4951;50.778;7.196;2022-09-14T07:34:08;18.10;99.90
9824;DHT22;4951;50.778;7.196;2022-09-14T07:36:36;18.10;99.90
9824;DHT22;4951;50.778;7.196;2022-09-14T07:39:06;18.10;99.90
9824;DHT22;4951;50.778;7.196;2022-09-14T07:41:34;18.10;99.90
9824;DHT22;4951;50.778;7.196;2022-09-14T07:44:03;18.10;99.90
9824;DHT22;4951;50.778;7.196;2022-09-14T07:46:35;18.10;99.90
9824;DHT22;4951;50.778;7.196;2022-09-14T07:49:03;18.10;99.90
9824;DHT22;4951;50.778;7.196;2022-09-14T07:51:31;18.10;99.90
9824;DHT22;4951;50.778;7.196;2022-09-14T07:53:59;18.20;99.90
9824;DHT22;4951;50.778;7.196;2022-09-14T07:56:28;18.20;99.90
9824;DHT22;4951;50.778;7.196;2022-09-14T07:58:56;18.20;99.90
9824;DHT22;4951;50.778;7.196;2022-09-14T08:01:24;18.20;99.90
9824;DHT22;4951;50.778;7.196;2022-09-14T08:03:54;18.20;99.90
9824;DHT22;4951;50.778;7.196;2022-09-14T08:06:23;18.20;99.90
9824;DHT22;4951;50.778;7.196;2022-09-14T08:08:52;18.20;99.90
9824;DHT22;4951;50.778;7.196;2022-09-14T08:11:21;18.30;99.90
9824;DHT22;4951;50.778;7.196;2022-09-14T08:13:53;18.30;99.90
9824;DHT22;4951;50.778;7.196;2022-09-14T08:16:21;18.40;99.90
9824;DHT22;4951;50.778;7.196;2022-09-14T08:18:52;18.40;99.90
9824;DHT22;4951;50.778;7.196;2022-09-14T08:21:20;18.50;99.90
9824;DHT22;4951;50.778;7.196;2022-09-14T08:23:47;18.50;99.90
9824;DHT22;4951;50.778;7.196;2022-09-14T08:26:16;18.60;99.90
9824;DHT22;4951;50.778;7.196;2022-09-14T08:28:44;18.60;99.90
9824;DHT22;4951;50.778;7.196;2022-09-14T08:31:14;18.70;99.90
9824;DHT22;4951;50.778;7.196;2022-09-14T08:33:44;18.70;99.90
9824;DHT22;4951;50.778;7.196;2022-09-14T08:36:13;18.70;99.90
9824;DHT22;4951;50.778;7.196;2022-09-14T08:38:40;18.70;99.90
9824;DHT22;4951;50.778;7.196;2022-09-14T08:41:25;18.70;99.90
9824;DHT22;4951;50.778;7.196;2022-09-14T08:43:52;18.70;99.90
9824;DHT22;4951;50.778;7.196;2022-09-14T08:46:28;18.70;99.90
9824;DHT22;4951;50.778;7.196;2022-09-14T08:48:56;18.70;99.90
9824;DHT22;4951;50.778;7.196;2022-09-14T08:51:24;18.70;99.90
9824;DHT22;4951;50.778;7.196;2022-09-14T08:53:51;18.70;99.90
9824;DHT22;4951;50.778;7.196;2022-09-14T08:56:23;18.70;99.90
9824;DHT22;4951;50.778;7.196;2022-09-14T08:59:17;18.80;99.90
9824;DHT22;4951;50.778;7.196;2022-09-14T09:01:53;18.80;99.90
9824;DHT22;4951;50.778;7.196;2022-09-14T09:04:33;18.80;99.90
9824;DHT22;4951;50.778;7.196;2022-09-14T09:07:07;18.80;99.90
9824;DHT22;4951;50.778;7.196;2022-09-14T09:09:42;18.80;99.90
9824;DHT22;4951;50.778;7.196;2022-09-14T09:12:15;18.80;99.90
9824;DHT22;4951;50.778;7.196;2022-09-14T09:14:47;18.90;99.90
9824;DHT22;4951;50.778;7.196;2022-09-14T09:17:21;18.90;99.90
9824;DHT22;4951;50.778;7.196;2022-09-14T09:19:58;18.90;99.90
9824;DHT22;4951;50.778;7.196;2022-09-14T09:22:30;19.00;99.90
9824;DHT22;4951;50.778;7.196;2022-09-14T09:24:57;19.00;99.90
9824;DHT22;4951;50.778;7.196;2022-09-14T09:27:27;19.00;99.90
9824;DHT22;4951;50.778;7.196;2022-09-14T09:29:57;19.00;99.90
9824;DHT22;4951;50.778;7.196;2022-09-14T09:32:28;19.10;99.90
9824;DHT22;4951;50.778;7.196;2022-09-14T09:34:55;19.10;99.90
9824;DHT22;4951;50.778;7.196;2022-09-14T09:37:38;19.10;99.90
9824;DHT22;4951;50.778;7.196;2022-09-14T09:40:13;19.20;99.90
9824;DHT22;4951;50.778;7.196;2022-09-14T09:43:03;19.20;99.90
9824;DHT22;4951;50.778;7.196;2022-09-14T09:45:53;19.20;99.90
9824;DHT22;4951;50.778;7.196;2022-09-14T09:48:26;19.20;99.90
9824;DHT22;4951;50.778;7.196;2022-09-14T09:51:08;19.10;99.90
9824;DHT22;4951;50.778;7.196;2022-09-14T09:53:37;19.00;99.90
9824;DHT22;4951;50.778;7.196;2022-09-14T09:56:05;18.90;99.90
9824;DHT22;4951;50.778;7.196;2022-09-14T09:58:35;18.80;99.90
9824;DHT22;4951;50.778;7.196;2022-09-14T10:01:04;18.80;99.90
9824;DHT22;4951;50.778;7.196;2022-09-14T10:03:36;18.70;99.90
9824;DHT22;4951;50.778;7.196;2022-09-14T10:06:07;18.70;99.90
9824;DHT22;4951;50.778;7.196;2022-09-14T10:08:40;18.60;99.90
9824;DHT22;4951;50.778;7.196;2022-09-14T10:11:32;18.60;99.90
9824;DHT22;4951;50.778;7.196;2022-09-14T10:14:02;18.60;99.90
9824;DHT22;4951;50.778;7.196;2022-09-14T10:16:35;18.70;99.90
9824;DHT22;4951;50.778;7.196;2022-09-14T10:19:12;18.70;99.90
9824;DHT22;4951;50.778;7.196;2022-09-14T10:22:02;18.70;99.90
9824;DHT22;4951;50.778;7.196;2022-09-14T10:24:29;18.80;99.90
9824;DHT22;4951;50.778;7.196;2022-09-14T10:26:57;18.80;99.90
9824;DHT22;4951;50.778;7.196;2022-09-14T10:29:37;18.80;99.90
9824;DHT22;4951;50.778;7.196;2022-09-14T10:32:16;18.80;99.90
9824;DHT22;4951;50.778;7.196;2022-09-14T10:34:46;18.70;99.90
9824;DHT22;4951;50.778;7.196;2022-09-14T10:37:25;18.70;99.90
9824;DHT22;4951;50.778;7.196;2022-09-14T10:40:06;18.70;99.90
9824;DHT22;4951;50.778;7.196;2022-09-14T10:42:40;18.70;99.90
9824;DHT22;4951;50.778;7.196;2022-09-14T10:45:17;18.70;99.90
9824;DHT22;4951;50.778;7.196;2022-09-14T10:47:55;18.70;99.90
9824;DHT22;4951;50.778;7.196;2022-09-14T10:50:36;18.70;99.90
9824;DHT22;4951;50.778;7.196;2022-09-14T10:53:16;18.70;99.90
9824;DHT22;4951;50.778;7.196;2022-09-14T10:55:50;18.70;99.90
9824;DHT22;4951;50.778;7.196;2022-09-14T10:58:28;18.70;99.90
9824;DHT22;4951;50.778;7.196;2022-09-14T11:01:07;18.70;99.90
9824;DHT22;4951;50.778;7.196;2022-09-14T11:03:49;18.60;99.90
9824;DHT22;4951;50.778;7.196;2022-09-14T11:06:31;18.60;99.90
9824;DHT22;4951;50.778;7.196;2022-09-14T11:09:05;18.60;99.90
9824;DHT22;4951;50.778;7.196;2022-09-14T11:11:44;18.50;99.90
9824;DHT22;4951;50.778;7.196;2022-09-14T11:14:25;18.50;99.90
9824;DHT22;4951;50.778;7.196;2022-09-14T11:19:57;18.40;99.90
9824;DHT22;4951;50.778;7.196;2022-09-14T11:22:34;18.30;99.90
9824;DHT22;4951;50.778;7.196;2022-09-14T11:25:10;18.30;99.90
9824;DHT22;4951;50.778;7.196;2022-09-14T11:27:43;18.30;99.90
9824;DHT22;4951;50.778;7.196;2022-09-14T11:30:15;18.30;99.90
9824;DHT22;4951;50.778;7.196;2022-09-14T11:32:46;18.30;99.90
9824;DHT22;4951;50.778;7.196;2022-09-14T11:35:18;18.40;99.90
9824;DHT22;4951;50.778;7.196;2022-09-14T11:37:52;18.40;99.90
9824;DHT22;4951;50.778;7.196;2022-09-14T11:40:23;18.40;99.90
9824;DHT22;4951;50.778;7.196;2022-09-14T11:42:57;18.50;99.90
9824;DHT22;4951;50.778;7.196;2022-09-14T11:45:28;18.60;99.90
9824;DHT22;4951;50.778;7.196;2022-09-14T11:48:04;18.60;99.90
9824;DHT22;4951;50.778;7.196;2022-09-14T11:50:33;18.70;99.90
9824;DHT22;4951;50.778;7.196;2022-09-14T11:53:10;18.70;99.90
9824;DHT22;4951;50.778;7.196;2022-09-14T11:55:39;18.70;99.90
9824;DHT22;4951;50.778;7.196;2022-09-14T11:58:19;18.70;99.90
9824;DHT22;4951;50.778;7.196;2022-09-14T12:01:23;18.80;99.90
9824;DHT22;4951;50.778;7.196;2022-09-14T12:04:14;18.90;99.90
9824;DHT22;4951;50.778;7.196;2022-09-14T12:06:48;19.10;99.90
9824;DHT22;4951;50.778;7.196;2022-09-14T12:09:47;19.20;99.90
9824;DHT22;4951;50.778;7.196;2022-09-14T12:12:32;19.20;99.90
9824;DHT22;4951;50.778;7.196;2022-09-14T12:15:02;19.30;99.90
9824;DHT22;4951;50.778;7.196;2022-09-14T12:17:33;19.30;99.90
9824;DHT22;4951;50.778;7.196;2022-09-14T12:20:24;19.40;99.90
9824;DHT22;4951;50.778;7.196;2022-09-14T12:26:12;19.60;99.90
9824;DHT22;4951;50.778;7.196;2022-09-14T12:28:47;19.70;99.90
9824;DHT22;4951;50.778;7.196;2022-09-14T12:31:37;19.70;99.90
9824;DHT22;4951;50.778;7.196;2022-09-14T12:34:17;19.60;99.90
9824;DHT22;4951;50.778;7.196;2022-09-14T12:46:40;19.40;99.90
9824;DHT22;4951;50.778;7.196;2022-09-14T12:49:31;19.40;99.90
9824;DHT22;4951;50.778;7.196;2022-09-14T12:55:14;19.30;99.90
9824;DHT22;4951;50.778;7.196;2022-09-14T12:57:47;19.30;99.90
9824;DHT22;4951;50.778;7.196;2022-09-14T13:00:19;19.20;99.90
9824;DHT22;4951;50.778;7.196;2022-09-14T13:03:08;19.20;99.90
9824;DHT22;4951;50.778;7.196;2022-09-14T13:05:42;19.10;99.90
9824;DHT22;4951;50.778;7.196;2022-09-14T13:08:11;19.00;99.90
9824;DHT22;4951;50.778;7.196;2022-09-14T13:10:44;18.90;99.90
9824;DHT22;4951;50.778;7.196;2022-09-14T13:13:15;18.90;99.90
9824;DHT22;4951;50.778;7.196;2022-09-14T13:15:52;18.90;99.90
9824;DHT22;4951;50.778;7.196;2022-09-14T13:18:38;18.90;99.90
9824;DHT22;4951;50.778;7.196;2022-09-14T13:21:17;18.80;99.90
9824;DHT22;4951;50.778;7.196;2022-09-14T13:23:46;18.80;99.90
9824;DHT22;4951;50.778;7.196;2022-09-14T13:26:17;18.70;99.90
9824;DHT22;4951;50.778;7.196;2022-09-14T13:28:47;18.70;99.90
9824;DHT22;4951;50.778;7.196;2022-09-14T13:31:18;18.60;99.90
9824;DHT22;4951;50.778;7.196;2022-09-14T13:33:49;18.60;99.90
9824;DHT22;4951;50.778;7.196;2022-09-14T13:36:18;18.60;99.90
9824;DHT22;4951;50.778;7.196;2022-09-14T13:38:47;18.60;99.90
9824;DHT22;4951;50.778;7.196;2022-09-14T13:41:15;18.60;99.90
9824;DHT22;4951;50.778;7.196;2022-09-14T13:43:44;18.60;99.90
9824;DHT22;4951;50.778;7.196;2022-09-14T13:46:12;18.60;99.90
9824;DHT22;4951;50.778;7.196;2022-09-14T13:48:41;18.60;99.90
9824;DHT22;4951;50.778;7.196;2022-09-14T13:51:12;18.60;99.90
9824;DHT22;4951;50.778;7.196;2022-09-14T13:53:43;18.60;99.90
9824;DHT22;4951;50.778;7.196;2022-09-14T13:56:22;18.60;99.90
9824;DHT22;4951;50.778;7.196;2022-09-14T13:59:18;18.60;99.90
9824;DHT22;4951;50.778;7.196;2022-09-14T14:01:55;18.70;99.90
9824;DHT22;4951;50.778;7.196;2022-09-14T14:04:27;18.70;99.90
9824;DHT22;4951;50.778;7.196;2022-09-14T14:07:06;18.70;99.90
9824;DHT22;4951;50.778;7.196;2022-09-14T14:09:43;18.70;99.90
9824;DHT22;4951;50.778;7.196;2022-09-14T14:12:21;18.70;99.90
9824;DHT22;4951;50.778;7.196;2022-09-14T14:14:54;18.70;99.90
9824;DHT22;4951;50.778;7.196;2022-09-14T14:17:33;18.70;99.90
9824;DHT22;4951;50.778;7.196;2022-09-14T14:20:27;18.80;99.90
9824;DHT22;4951;50.778;7.196;2022-09-14T14:22:58;18.80;99.90
9824;DHT22;4951;50.778;7.196;2022-09-14T14:25:31;18.80;99.90
9824;DHT22;4951;50.778;7.196;2022-09-14T14:28:01;18.80;99.90
9824;DHT22;4951;50.778;7.196;2022-09-14T14:30:37;18.80;99.90
9824;DHT22;4951;50.778;7.196;2022-09-14T14:33:11;18.80;99.90
9824;DHT22;4951;50.778;7.196;2022-09-14T14:35:45;18.80;99.90
9824;DHT22;4951;50.778;7.196;2022-09-14T14:38:20;18.70;99.90
9824;DHT22;4951;50.778;7.196;2022-09-14T14:40:49;18.60;99.90
9824;DHT22;4951;50.778;7.196;2022-09-14T14:43:25;18.50;99.90
9824;DHT22;4951;50.778;7.196;2022-09-14T14:45:59;18.50;99.90
9824;DHT22;4951;50.778;7.196;2022-09-14T14:48:29;18.50;99.90
9824;DHT22;4951;50.778;7.196;2022-09-14T14:50:56;18.40;99.90
9824;DHT22;4951;50.778;7.196;2022-09-14T14:53:25;18.30;99.90
9824;DHT22;4951;50.778;7.196;2022-09-14T14:55:53;18.30;99.90
9824;DHT22;4951;50.778;7.196;2022-09-14T14:58:21;18.20;99.90
9824;DHT22;4951;50.778;7.196;2022-09-14T15:00:50;18.10;99.90
9824;DHT22;4951;50.778;7.196;2022-09-14T15:03:18;18.10;99.90
9824;DHT22;4951;50.778;7.196;2022-09-14T15:05:46;18.00;99.90
9824;DHT22;4951;50.778;7.196;2022-09-14T15:08:15;17.90;99.90
9824;DHT22;4951;50.778;7.196;2022-09-14T15:10:44;17.90;99.90
9824;DHT22;4951;50.778;7.196;2022-09-14T15:13:12;17.80;99.90
9824;DHT22;4951;50.778;7.196;2022-09-14T15:15:41;17.80;99.90
9824;DHT22;4951;50.778;7.196;2022-09-14T15:18:09;17.80;99.90
9824;DHT22;4951;50.778;7.196;2022-09-14T15:20:36;17.70;99.90
9824;DHT22;4951;50.778;7.196;2022-09-14T15:23:03;17.70;99.90
9824;DHT22;4951;50.778;7.196;2022-09-14T15:25:31;17.60;99.90
9824;DHT22;4951;50.778;7.196;2022-09-14T15:27:59;17.60;99.90
9824;DHT22;4951;50.778;7.196;2022-09-14T15:30:27;17.60;99.90
9824;DHT22;4951;50.778;7.196;2022-09-14T15:32:55;17.50;99.90
9824;DHT22;4951;50.778;7.196;2022-09-14T15:35:22;17.50;99.90
9824;DHT22;4951;50.778;7.196;2022-09-14T15:37:49;17.50;99.90
9824;DHT22;4951;50.778;7.196;2022-09-14T15:40:17;17.50;99.90
9824;DHT22;4951;50.778;7.196;2022-09-14T15:42:45;17.40;99.90
9824;DHT22;4951;50.778;7.196;2022-09-14T15:45:14;17.40;99.90
9824;DHT22;4951;50.778;7.196;2022-09-14T15:47:42;17.30;99.90
9824;DHT22;4951;50.778;7.196;2022-09-14T15:50:12;17.30;99.90
9824;DHT22;4951;50.778;7.196;2022-09-14T15:52:39;17.30;99.90
9824;DHT22;4951;50.778;7.196;2022-09-14T15:55:09;17.30;99.90
9824;DHT22;4951;50.778;7.196;2022-09-14T15:57:37;17.30;99.90
9824;DHT22;4951;50.778;7.196;2022-09-14T16:00:07;17.30;99.90
9824;DHT22;4951;50.778;7.196;2022-09-14T16:02:43;17.30;99.90
9824;DHT22;4951;50.778;7.196;2022-09-14T16:05:10;17.30;99.90
9824;DHT22;4951;50.778;7.196;2022-09-14T16:07:39;17.30;99.90
9824;DHT22;4951;50.778;7.196;2022-09-14T16:10:07;17.30;99.90
9824;DHT22;4951;50.778;7.196;2022-09-14T16:12:35;17.30;99.90
9824;DHT22;4951;50.778;7.196;2022-09-14T16:15:03;17.30;99.90
9824;DHT22;4951;50.778;7.196;2022-09-14T16:17:30;17.30;99.90
9824;DHT22;4951;50.778;7.196;2022-09-14T16:19:59;17.30;99.90
9824;DHT22;4951;50.778;7.196;2022-09-14T16:22:26;17.30;99.90
9824;DHT22;4951;50.778;7.196;2022-09-14T16:24:54;17.20;99.90
9824;DHT22;4951;50.778;7.196;2022-09-14T16:27:21;17.20;99.90
9824;DHT22;4951;50.778;7.196;2022-09-14T16:29:48;17.20;99.90
9824;DHT22;4951;50.778;7.196;2022-09-14T16:32:15;17.20;99.90
9824;DHT22;4951;50.778;7.196;2022-09-14T16:34:42;17.20;99.90
9824;DHT22;4951;50.778;7.196;2022-09-14T16:37:15;17.10;99.90
9824;DHT22;4951;50.778;7.196;2022-09-14T16:39:42;17.10;99.90
9824;DHT22;4951;50.778;7.196;2022-09-14T16:42:10;17.10;99.90
9824;DHT22;4951;50.778;7.196;2022-09-14T16:44:37;17.10;99.90
9824;DHT22;4951;50.778;7.196;2022-09-14T16:47:04;17.10;99.90
9824;DHT22;4951;50.778;7.196;2022-09-14T16:49:32;17.10;99.90
9824;DHT22;4951;50.778;7.196;2022-09-14T16:52:02;17.00;99.90